Time;durP1;ratioP1;P1;durP2;ratioP2;P2;SDS_P1;SDS_P2;PMS_P1;PMS_P2;Temp;Humidity;BMP_temperature;BMP_pressure;BME280_temperature;BME280_humidity;BME280_pressure;Samples;Min_cycle;Max_cycle;Signal;HPM_P1;HPM_P2
2022/10/10 00:01:04;;;;;;;6.32;3.25;;;;;;;18.95;42.11;101355.91;16118733;19;130425;-50
2022/10/10 00:06:26;;;;;;;5.07;2.78;;;;;;;18.94;41.77;101354.22;16115783;19;129394;-52
2022/10/10 00:11:53;;;;;;;5.57;3.05;;;;;;;18.93;41.84;101355.28;16117817;19;133306;-46
2022/10/10 00:17:15;;;;;;;5.50;2.65;;;;;;;18.91;41.78;101349.13;16117690;19;130242;-49
2022/10/10 00:22:37;;;;;;;5.57;3.17;;;;;;;18.89;41.58;101351.28;16119282;19;129812;-52
2022/10/10 00:28:03;;;;;;;5.07;3.10;;;;;;;18.89;42.09;101354.06;16119238;19;132262;-53
2022/10/10 00:33:24;;;;;;;7.30;2.78;;;;;;;18.87;42.07;101342.38;16115325;19;129278;-63
2022/10/10 00:38:47;;;;;;;5.32;2.88;;;;;;;18.86;41.74;101341.53;16116352;19;129192;-49
2022/10/10 00:44:12;;;;;;;4.95;2.45;;;;;;;18.84;41.89;101332.59;16127887;19;131951;-50
2022/10/10 00:49:37;;;;;;;4.60;2.47;;;;;;;18.83;41.71;101333.69;16133276;19;130666;-49
2022/10/10 00:54:58;;;;;;;6.13;2.20;;;;;;;18.82;42.08;101329.22;16130739;19;131499;-50
2022/10/10 01:00:20;;;;;;;4.35;2.05;;;;;;;18.82;41.73;101329.22;16126233;19;131215;-51
2022/10/10 01:05:43;;;;;;;3.20;2.03;;;;;;;18.82;41.84;101328.41;16128967;19;129516;-46
2022/10/10 01:11:20;;;;;;;3.72;2.60;;;;;;;18.81;41.65;101324.75;16131431;19;129464;-50
2022/10/10 01:17:05;;;;;;;5.47;2.42;;;;;;;18.81;41.65;101321.16;16128486;19;129500;-48
2022/10/10 01:23:11;;;;;;;3.65;2.30;;;;;;;18.76;42.07;101324.66;16129455;19;129232;-49
2022/10/10 01:29:07;;;;;;;5.85;1.90;;;;;;;18.79;41.76;101328.88;16120571;19;129440;-47
2022/10/10 01:34:43;;;;;;;3.65;1.70;;;;;;;18.75;42.18;101329.31;16118885;19;129506;-48
2022/10/10 01:40:17;;;;;;;4.55;2.00;;;;;;;18.76;42.15;101316.34;16115614;19;129553;-49
2022/10/10 01:45:51;;;;;;;3.08;1.90;;;;;;;18.79;42.09;101312.22;16121352;19;135924;-46
2022/10/10 01:51:21;;;;;;;4.00;1.85;;;;;;;18.75;42.13;101307.16;16114941;19;130903;-48
2022/10/10 01:57:13;;;;;;;5.53;2.05;;;;;;;18.75;42.06;101301.63;16119199;19;129846;-48
2022/10/10 02:02:50;;;;;;;4.13;2.10;;;;;;;18.74;42.16;101297.16;16124317;19;129809;-47
2022/10/10 02:08:27;;;;;;;4.82;1.75;;;;;;;18.72;42.16;101296.53;16123813;19;129652;-51
2022/10/10 02:14:01;;;;;;;3.60;1.77;;;;;;;18.71;42.19;101294.84;16125383;19;129782;-49
2022/10/10 02:19:24;;;;;;;2.90;1.63;;;;;;;18.68;41.83;101295.34;16126123;19;129640;-51
2022/10/10 02:24:46;;;;;;;4.10;1.60;;;;;;;18.67;42.09;101288.09;16122477;19;130623;-50
2022/10/10 02:30:08;;;;;;;3.08;1.55;;;;;;;18.68;41.90;101277.84;16122121;19;129256;-51
2022/10/10 02:35:37;;;;;;;4.07;1.70;;;;;;;18.68;42.00;101283.41;16122875;19;129552;-50
2022/10/10 02:41:02;;;;;;;3.50;1.60;;;;;;;18.65;42.29;101270.88;16125035;19;130993;-51
2022/10/10 02:46:24;;;;;;;;;;;;;;;18.62;41.89;101263.03;16121820;19;130121;-52
2022/10/10 02:51:46;;;;;;;2.55;1.33;;;;;;;18.64;41.82;101266.41;16120320;19;129863;-50
2022/10/10 02:57:07;;;;;;;2.80;1.42;;;;;;;18.62;41.89;101268.56;16124516;19;129377;-47
2022/10/10 03:02:29;;;;;;;3.72;1.80;;;;;;;18.60;41.94;101260.50;16121601;19;129398;-49
2022/10/10 03:07:51;;;;;;;2.03;1.65;;;;;;;18.61;42.10;101261.34;16125882;19;129509;-48
2022/10/10 03:13:12;;;;;;;2.08;1.20;;;;;;;18.58;42.33;101254.34;16121900;19;130809;-48
2022/10/10 03:18:34;;;;;;;2.47;1.60;;;;;;;18.58;41.92;101247.97;16123766;19;129953;-51
2022/10/10 03:23:56;;;;;;;2.70;1.50;;;;;;;18.58;42.29;101257.13;16123062;19;129347;-50
2022/10/10 03:29:18;;;;;;;2.00;1.20;;;;;;;18.56;42.17;101248.19;16121649;19;129863;-48
2022/10/10 03:34:39;;;;;;;1.80;1.20;;;;;;;18.56;42.00;101259.28;16121849;19;129238;-49
2022/10/10 03:40:01;;;;;;;3.35;1.42;;;;;;;18.56;42.37;101252.91;16121792;19;130176;-48
2022/10/10 03:45:23;;;;;;;2.88;1.20;;;;;;;18.55;42.08;101251.22;16121176;19;130376;-51
2022/10/10 03:50:45;;;;;;;2.95;1.30;;;;;;;18.55;42.23;101242.91;16119663;19;129450;-48
2022/10/10 03:56:06;;;;;;;2.35;1.35;;;;;;;18.54;42.02;101255.91;16123422;19;130401;-50
2022/10/10 04:01:29;;;;;;;2.17;1.23;;;;;;;18.53;42.12;101247.84;16118817;19;129496;-53
2022/10/10 04:06:51;;;;;;;2.88;1.27;;;;;;;18.53;42.21;101253.38;16118025;19;129429;-48
2022/10/10 04:12:13;;;;;;;2.30;0.95;;;;;;;18.52;42.00;101246.16;16118679;19;129582;-50
2022/10/10 04:17:34;;;;;;;2.22;1.35;;;;;;;18.50;42.47;101254.72;16131750;19;129646;-47
2022/10/10 04:22:56;;;;;;;2.00;1.10;;;;;;;18.50;42.28;101254.72;16136779;19;129630;-50
2022/10/10 04:28:18;;;;;;;2.58;1.40;;;;;;;18.49;42.09;101247.47;16134314;19;129980;-50
2022/10/10 04:33:40;;;;;;;2.78;1.50;;;;;;;18.48;41.98;101247.69;16132655;19;130036;-48
2022/10/10 04:39:01;;;;;;;3.35;1.42;;;;;;;18.48;42.44;101250.47;16135709;19;129844;-48
2022/10/10 04:44:23;;;;;;;2.58;1.30;;;;;;;18.48;42.23;101244.91;16132852;19;129469;-46
2022/10/10 04:49:45;;;;;;;2.05;1.17;;;;;;;18.47;42.31;101255.16;16132091;19;130618;-46
2022/10/10 04:55:07;;;;;;;2.95;1.17;;;;;;;18.45;42.14;101257.34;16135106;19;129226;-49
2022/10/10 05:00:28;;;;;;;1.85;1.30;;;;;;;18.43;42.34;101254.81;16129455;19;129936;-46
2022/10/10 05:05:50;;;;;;;2.33;1.15;;;;;;;18.43;42.44;101249.28;16131344;19;130687;-51
2022/10/10 05:11:12;;;;;;;2.33;1.33;;;;;;;18.43;42.25;101259.50;16131260;19;129454;-49
2022/10/10 05:16:34;;;;;;;1.35;1.10;;;;;;;18.42;42.07;101258.66;16133743;19;129282;-48
2022/10/10 05:21:56;;;;;;;3.33;1.33;;;;;;;18.43;42.47;101254.81;16130117;19;130184;-48
2022/10/10 05:27:17;;;;;;;1.80;1.20;;;;;;;18.42;42.20;101247.56;16127740;19;129697;-48
2022/10/10 05:32:39;;;;;;;2.35;1.10;;;;;;;18.39;42.25;101248.03;16129558;19;129544;-48
2022/10/10 05:38:01;;;;;;;1.50;1.27;;;;;;;18.39;42.33;101258.25;16132292;19;129486;-47
2022/10/10 05:43:23;;;;;;;2.25;1.00;;;;;;;18.40;42.35;101260.81;16129484;19;129585;-50
2022/10/10 05:48:45;;;;;;;2.60;1.00;;;;;;;18.40;42.07;101258.03;16127339;19;129933;-49
2022/10/10 05:54:06;;;;;;;13.50;1.20;;;;;;;18.42;42.43;101257.78;16126103;19;129234;-48
2022/10/10 05:59:28;;;;;;;3.85;1.40;;;;;;;18.40;42.39;101263.59;16123862;19;129687;-49
2022/10/10 06:04:50;;;;;;;2.63;1.33;;;;;;;18.40;42.43;101266.34;16127284;19;130387;-46
2022/10/10 06:10:12;;;;;;;6.85;1.80;;;;;;;18.38;42.04;101262.94;16126300;19;130662;-48
2022/10/10 06:15:34;;;;;;;7.35;1.40;;;;;;;18.42;42.42;101266.09;16127226;19;130905;-45
2022/10/10 06:21:00;;;;;;;4.05;1.30;;;;;;;18.45;42.12;101265.66;16125034;19;130466;-46
2022/10/10 06:26:22;;;;;;;4.80;1.63;;;;;;;18.45;42.32;101268.41;16125741;19;129701;-53
2022/10/10 06:31:44;;;;;;;5.10;1.30;;;;;;;18.46;42.00;101270.94;16122212;19;130065;-52
2022/10/10 06:37:07;;;;;;;2.33;1.40;;;;;;;18.46;42.28;101272.88;16118565;19;129579;-46
2022/10/10 06:42:29;;;;;;;5.85;1.60;;;;;;;18.51;42.11;101283.25;16122661;19;129732;-48
2022/10/10 06:47:50;;;;;;;8.23;1.67;;;;;;;18.53;42.46;101286.63;16124565;19;129405;-47
2022/10/10 06:53:12;;;;;;;4.05;1.00;;;;;;;18.57;42.21;101294.22;16122552;19;129436;-50
2022/10/10 06:58:34;;;;;;;4.60;1.23;;;;;;;18.62;42.17;101293.50;16121314;19;131104;-47
2022/10/10 07:03:56;;;;;;;5.63;1.83;;;;;;;18.67;42.02;101303.88;16120849;19;129996;-47
2022/10/10 07:09:18;;;;;;;7.03;1.10;;;;;;;18.74;42.23;101301.88;16120049;19;130288;-48
2022/10/10 07:14:40;;;;;;;2.92;1.20;;;;;;;19.11;41.71;101303.56;16115697;19;129312;-48
2022/10/10 07:20:02;;;;;;;3.10;1.20;;;;;;;19.68;40.82;101309.38;16114840;19;129269;-47
2022/10/10 07:25:24;;;;;;;4.80;1.00;;;;;;;20.17;39.84;101316.53;16115420;19;130277;-48
2022/10/10 07:30:46;;;;;;;3.13;1.20;;;;;;;20.10;39.84;101318.59;16119449;19;129753;-51
2022/10/10 07:36:07;;;;;;;5.18;1.23;;;;;;;20.47;39.49;101326.53;16119701;19;129900;-46
2022/10/10 07:41:29;;;;;;;2.63;1.40;;;;;;;20.73;38.74;101329.78;16119147;19;129868;-45
2022/10/10 07:46:51;;;;;;;4.10;1.02;;;;;;;20.65;38.96;101332.97;16119147;19;129711;-47
2022/10/10 07:52:12;;;;;;;1.38;1.00;;;;;;;20.56;38.74;101325.00;16128577;19;130529;-49
2022/10/10 07:57:35;;;;;;;2.65;1.17;;;;;;;20.50;39.05;101326.03;16133921;19;129566;-47
2022/10/10 08:02:57;;;;;;;2.28;1.10;;;;;;;20.66;39.05;101334.66;16133995;19;130053;-50
2022/10/10 08:08:19;;;;;;;1.98;1.10;;;;;;;20.71;38.64;101327.25;16137918;19;131194;-51
2022/10/10 08:13:41;;;;;;;2.72;1.20;;;;;;;20.46;38.57;101341.50;16136018;19;129517;-48
2022/10/10 08:19:03;;;;;;;2.20;1.02;;;;;;;20.18;39.23;101348.78;16133566;19;129574;-46
2022/10/10 08:24:25;;;;;;;3.35;1.20;;;;;;;19.93;39.27;101349.88;16132746;19;130672;-50
2022/10/10 08:29:47;;;;;;;2.70;1.20;;;;;;;19.76;40.01;101349.78;16132220;19;129392;-48
2022/10/10 08:35:08;;;;;;;4.90;0.98;;;;;;;19.62;39.93;101348.38;16133761;19;130395;-47
2022/10/10 08:40:30;;;;;;;2.17;1.25;;;;;;;19.52;39.99;101348.97;16133151;19;130278;-46
2022/10/10 08:45:56;;;;;;;2.08;1.00;;;;;;;19.44;40.75;101346.56;16133454;19;129340;-45
2022/10/10 08:51:30;;;;;;;2.05;1.20;;;;;;;19.37;40.87;101347.53;16131586;19;129280;-49
2022/10/10 08:56:56;;;;;;;3.85;1.20;;;;;;;19.31;41.05;101358.75;16133374;19;130643;-47
2022/10/10 09:02:33;;;;;;;3.15;1.08;;;;;;;19.28;40.82;101368.41;16130052;19;129389;-47
2022/10/10 09:08:33;;;;;;;2.42;1.40;;;;;;;19.23;41.24;101357.16;16129038;19;130083;-46
2022/10/10 09:14:26;;;;;;;2.30;1.20;;;;;;;19.20;40.98;101363.19;16129951;19;129013;-48
2022/10/10 09:20:10;;;;;;;2.40;1.30;;;;;;;19.16;41.34;101373.06;16129753;19;129675;-49
2022/10/10 09:25:41;;;;;;;3.35;1.02;;;;;;;19.13;41.18;101390.16;16127592;19;129419;-47
2022/10/10 09:31:25;;;;;;;2.15;1.20;;;;;;;19.09;41.23;101392.56;16128965;19;129675;-46
2022/10/10 09:36:47;;;;;;;2.97;1.30;;;;;;;19.05;41.43;101403.31;16127385;19;129660;-48
2022/10/10 09:42:12;;;;;;;3.00;1.30;;;;;;;19.03;41.84;101408.25;16128496;19;129594;-49
2022/10/10 09:47:34;;;;;;;4.37;1.17;;;;;;;18.99;41.86;101404.25;16130812;19;130573;-47
2022/10/10 09:52:57;;;;;;;2.75;1.10;;;;;;;18.98;41.47;101410.88;16130220;19;129551;-47
2022/10/10 09:58:24;;;;;;;3.50;1.20;;;;;;;18.98;41.72;101423.91;16128931;19;131284;-47
2022/10/10 10:04:15;;;;;;;3.55;1.30;;;;;;;18.98;41.59;101427.50;16127129;19;129725;-48
2022/10/10 10:09:51;;;;;;;1.60;1.05;;;;;;;18.95;41.62;101428.00;16128264;19;129685;-45
2022/10/10 10:15:25;;;;;;;2.70;0.98;;;;;;;18.97;42.11;101413.88;16126654;19;129240;-48
2022/10/10 10:20:49;;;;;;;3.20;1.00;;;;;;;18.96;41.75;101412.19;16126499;19;129007;-50
2022/10/10 10:26:45;;;;;;;2.60;1.20;;;;;;;18.96;41.99;101426.88;16125943;19;129233;-51
2022/10/10 10:32:27;;;;;;;1.75;1.17;;;;;;;18.96;42.17;101426.88;16123413;19;129540;-46
2022/10/10 10:37:49;;;;;;;2.15;1.20;;;;;;;18.94;41.70;101430.97;16123706;19;130468;-51
2022/10/10 10:43:13;;;;;;;3.90;1.23;;;;;;;18.94;42.03;101426.31;16122029;19;129870;-47
2022/10/10 10:48:39;;;;;;;1.75;1.05;;;;;;;18.94;42.24;101426.31;16124703;19;129326;-47
2022/10/10 10:54:29;;;;;;;4.75;1.23;;;;;;;18.95;42.29;101432.69;16122937;19;129113;-46
2022/10/10 10:59:56;;;;;;;2.60;1.13;;;;;;;;;;16124061;19;129439;-47
2022/10/10 11:05:44;;;;;;;2.33;0.90;;;;;;;18.91;42.13;101443.41;16125700;19;129625;-46
2022/10/10 11:11:20;;;;;;;2.05;0.90;;;;;;;18.93;41.88;101444.00;16122315;19;129478;-45
2022/10/10 11:17:08;;;;;;;3.15;1.20;;;;;;;;;;16122053;19;129402;-48
2022/10/10 11:22:35;;;;;;;2.45;1.13;;;;;;;18.90;42.09;101453.63;16121980;19;130655;-47
2022/10/10 11:28:12;;;;;;;1.77;1.10;;;;;;;18.90;42.44;101461.13;16120409;19;129564;-45
2022/10/10 11:33:58;;;;;;;1.60;1.00;;;;;;;18.89;42.08;101453.88;16122472;19;129759;-47
2022/10/10 11:39:29;;;;;;;2.00;1.20;;;;;;;18.86;42.15;101454.34;16118164;19;130137;-48
2022/10/10 11:45:15;;;;;;;1.27;0.77;;;;;;;18.87;42.31;101454.13;16120547;19;129803;-47
2022/10/10 11:50:42;;;;;;;1.27;0.93;;;;;;;18.87;42.06;101456.03;16117610;19;129337;-47
2022/10/10 11:56:10;;;;;;;2.78;1.13;;;;;;;18.88;41.96;101460.50;16119209;19;130007;-46
2022/10/10 12:01:37;;;;;;;2.80;1.05;;;;;;;18.88;42.52;101468.81;16121144;19;130059;-48
2022/10/10 12:07:05;;;;;;;2.38;1.02;;;;;;;18.88;42.24;101469.69;16120465;19;129229;-48
2022/10/10 12:12:33;;;;;;;1.77;1.10;;;;;;;18.89;42.28;101478.81;16118972;19;129719;-47
2022/10/10 12:17:55;;;;;;;1.33;1.00;;;;;;;18.88;42.16;101472.44;16120293;19;129479;-48
2022/10/10 12:23:28;;;;;;;3.08;1.17;;;;;;;18.89;42.20;101490.75;16121896;19;129668;-46
2022/10/10 12:28:58;;;;;;;1.88;1.10;;;;;;;18.90;42.30;101497.16;16120051;19;129673;-50
2022/10/10 12:34:59;;;;;;;3.17;1.10;;;;;;;18.88;42.23;101493.75;16117154;19;129123;-46
2022/10/10 12:40:21;;;;;;;2.30;1.20;;;;;;;18.89;42.34;101498.22;16123577;19;129561;-46
2022/10/10 12:45:52;;;;;;;2.40;1.25;;;;;;;18.89;42.62;101496.28;16126616;19;129759;-48
2022/10/10 12:51:20;;;;;;;2.28;1.20;;;;;;;18.88;42.60;101497.41;16121900;19;129583;-48
2022/10/10 12:56:43;;;;;;;2.60;1.20;;;;;;;18.87;42.23;101500.38;16122898;19;130158;-49
2022/10/10 13:02:15;;;;;;;1.80;1.00;;;;;;;18.87;42.65;101511.47;16120516;19;129576;-47
2022/10/10 13:07:38;;;;;;;2.20;1.00;;;;;;;18.84;42.67;101525.78;16122426;19;129785;-48
2022/10/10 13:13:05;;;;;;;4.00;1.10;;;;;;;18.84;42.25;101525.78;16130473;19;129556;-46
2022/10/10 13:18:37;;;;;;;3.22;1.30;;;;;;;18.83;42.24;101524.97;16129587;19;130168;-49
2022/10/10 13:24:03;;;;;;;3.13;1.50;;;;;;;18.81;42.33;101526.28;16131244;19;133962;-48
2022/10/10 13:29:27;;;;;;;3.75;1.60;;;;;;;18.81;42.40;101537.38;16128776;19;130063;-51
2022/10/10 13:34:54;;;;;;;5.32;1.65;;;;;;;18.81;42.57;101565.09;16130159;19;130865;-46
2022/10/10 13:40:17;;;;;;;3.42;1.65;;;;;;;18.79;42.88;101564.47;16128396;19;129311;-48
2022/10/10 13:45:55;;;;;;;2.00;1.35;;;;;;;18.79;42.49;101578.34;16131711;19;131854;-48
2022/10/10 13:51:18;;;;;;;3.25;1.40;;;;;;;18.77;42.63;101581.31;16129454;19;129352;-45
2022/10/10 13:56:39;;;;;;;4.57;1.88;;;;;;;18.75;43.17;101589.88;16128417;19;129249;-45
2022/10/10 14:02:05;;;;;;;5.22;1.65;;;;;;;18.75;43.16;101592.66;16126191;19;129394;-48
2022/10/10 14:07:29;;;;;;;4.70;1.70;;;;;;;18.76;42.95;101616.53;16126506;19;129220;-47
2022/10/10 14:12:53;;;;;;;5.95;1.90;;;;;;;18.75;43.18;101620.38;16128548;19;129356;-49
2022/10/10 14:18:18;;;;;;;4.32;1.88;;;;;;;18.76;43.28;101641.47;16126417;19;129515;-45
2022/10/10 14:23:39;;;;;;;5.90;2.20;;;;;;;18.73;43.17;101650.25;16125266;19;129891;-45
2022/10/10 14:29:01;;;;;;;6.72;2.00;;;;;;;18.72;43.51;101651.31;16124668;19;129325;-50
2022/10/10 14:34:23;;;;;;;4.30;2.17;;;;;;;18.71;43.49;101666.25;16124639;19;129466;-50
2022/10/10 14:39:45;;;;;;;5.20;2.30;;;;;;;18.71;43.50;101685.66;16123969;19;130025;-47
2022/10/10 14:45:11;;;;;;;6.30;2.00;;;;;;;18.68;43.77;101683.34;16125125;19;129125;-45
2022/10/10 14:50:36;;;;;;;4.60;2.00;;;;;;;18.69;43.48;101695.28;16126210;19;129589;-46
2022/10/10 14:55:58;;;;;;;6.95;1.92;;;;;;;18.66;43.81;101712.34;16126892;19;129282;-49
2022/10/10 15:01:20;;;;;;;3.70;1.85;;;;;;;18.65;43.90;101711.53;16119404;19;129973;-48
2022/10/10 15:06:42;;;;;;;4.10;1.65;;;;;;;18.64;43.82;101714.53;16122101;19;129593;-46
2022/10/10 15:12:24;;;;;;;4.07;1.55;;;;;;;18.62;43.84;101742.44;16122585;19;130765;-47
2022/10/10 15:17:45;;;;;;;5.13;1.50;;;;;;;18.62;43.86;101756.31;16124383;19;129579;-46
2022/10/10 15:23:07;;;;;;;4.65;1.42;;;;;;;18.57;43.81;101759.75;16119025;19;129399;-49
2022/10/10 15:28:30;;;;;;;3.33;1.30;;;;;;;18.58;43.85;101774.47;16121141;19;129168;-52
2022/10/10 15:33:54;;;;;;;2.13;1.13;;;;;;;18.56;43.98;101788.53;16119276;19;130749;-48
2022/10/10 15:39:15;;;;;;;4.05;1.35;;;;;;;18.55;44.07;101805.41;16119323;19;130089;-49
2022/10/10 15:44:43;;;;;;;3.95;1.10;;;;;;;18.52;44.55;101815.03;16120100;19;129930;-46
2022/10/10 15:50:06;;;;;;;6.93;1.40;;;;;;;18.52;44.30;101817.78;16117382;19;129765;-52
2022/10/10 15:55:28;;;;;;;3.95;1.23;;;;;;;18.65;44.29;101839.00;16117879;19;129461;-51
2022/10/10 16:00:50;;;;;;;3.33;1.15;;;;;;;18.81;43.92;101843.16;16120861;19;129489;-46
2022/10/10 16:06:12;;;;;;;4.88;1.25;;;;;;;18.99;43.82;101852.63;16115228;19;129149;-44
2022/10/10 16:11:35;;;;;;;3.55;1.13;;;;;;;19.13;43.93;101850.56;16121716;19;132975;-51
2022/10/10 16:16:57;;;;;;;4.43;0.90;;;;;;;19.29;43.30;101863.03;16133733;19;129617;-48
2022/10/10 16:22:22;;;;;;;4.13;0.90;;;;;;;19.36;43.16;101872.16;16129791;19;129420;-50
2022/10/10 16:27:43;;;;;;;4.85;0.90;;;;;;;19.36;43.09;101878.53;16131895;19;131879;-53
2022/10/10 16:33:05;;;;;;;2.72;0.95;;;;;;;19.35;43.10;101887.94;16132532;19;129515;-50
2022/10/10 16:38:27;;;;;;;2.83;0.80;;;;;;;19.32;43.28;101893.94;16130620;19;129509;-52
2022/10/10 16:43:48;;;;;;;1.83;0.80;;;;;;;19.29;43.11;101904.66;16133175;19;129267;-51
2022/10/10 16:49:15;;;;;;;3.13;1.20;;;;;;;19.26;43.28;101919.84;16129338;19;129960;-51
2022/10/10 16:54:36;;;;;;;2.33;0.85;;;;;;;19.21;43.64;101920.50;16131735;19;129692;-46
2022/10/10 16:59:58;;;;;;;2.65;0.85;;;;;;;19.17;43.37;101932.25;16130087;19;129509;-46
2022/10/10 17:05:20;;;;;;;2.17;0.88;;;;;;;19.12;43.79;101941.25;16127327;19;129642;-49
2022/10/10 17:10:43;;;;;;;2.40;0.85;;;;;;;19.08;43.49;101951.09;16130223;19;129955;-48
2022/10/10 17:16:07;;;;;;;2.15;0.80;;;;;;;19.11;43.45;101955.34;16128753;19;129256;-47
2022/10/10 17:21:48;;;;;;;3.63;1.27;;;;;;;19.20;43.57;101962.34;16125832;19;131497;-46
2022/10/10 17:27:10;;;;;;;3.60;0.90;;;;;;;19.30;43.19;101978.50;16126690;19;129790;-46
2022/10/10 17:32:32;;;;;;;5.47;1.08;;;;;;;19.34;43.63;101991.69;16128275;19;129892;-47
2022/10/10 17:37:54;;;;;;;9.30;1.30;;;;;;;19.38;43.54;102009.59;16128659;19;134297;-47
2022/10/10 17:43:16;;;;;;;18.95;1.40;;;;;;;19.41;43.91;102002.72;16129513;19;129292;-51
2022/10/10 17:48:39;;;;;;;11.55;1.38;;;;;;;19.49;43.81;102015.47;16127647;19;129625;-47
2022/10/10 17:54:02;;;;;;;7.82;0.90;;;;;;;19.62;43.50;102020.94;16126063;19;129547;-50
2022/10/10 17:59:23;;;;;;;7.75;0.85;;;;;;;19.75;43.57;102042.19;16124557;19;130195;-47
2022/10/10 18:04:46;;;;;;;10.50;1.00;;;;;;;19.85;43.31;102047.22;16125212;19;129581;-49
2022/10/10 18:10:08;;;;;;;2.92;0.93;;;;;;;19.93;43.20;102052.50;16125698;19;129588;-46
2022/10/10 18:15:29;;;;;;;9.80;1.20;;;;;;;20.01;43.36;102056.09;16125748;19;129665;-49
2022/10/10 18:20:51;;;;;;;7.68;1.10;;;;;;;20.07;43.26;102074.59;16125365;19;129690;-51
2022/10/10 18:26:16;;;;;;;15.98;1.85;;;;;;;20.11;43.03;102084.19;16124456;19;129588;-47
2022/10/10 18:31:38;;;;;;;5.03;0.98;;;;;;;20.14;43.25;102089.28;16124978;19;130218;-47
2022/10/10 18:37:00;;;;;;;15.57;1.42;;;;;;;20.19;43.42;102095.00;16124273;19;129288;-50
2022/10/10 18:42:21;;;;;;;11.45;1.55;;;;;;;20.32;43.00;102101.50;16123366;19;129959;-47
2022/10/10 18:47:43;;;;;;;9.63;1.52;;;;;;;20.49;43.28;102108.19;16126968;19;130392;-47
2022/10/10 18:53:05;;;;;;;11.27;1.52;;;;;;;20.64;42.87;102112.50;16122926;19;130010;-49
2022/10/10 18:58:28;;;;;;;16.35;1.77;;;;;;;20.70;42.95;102120.78;16122529;19;129477;-48
2022/10/10 19:03:50;;;;;;;22.67;2.30;;;;;;;20.73;42.77;102138.94;16122065;19;129121;-46
2022/10/10 19:09:14;;;;;;;23.10;2.45;;;;;;;20.69;43.01;102134.91;16121335;19;129843;-49
2022/10/10 19:14:36;;;;;;;24.33;2.42;;;;;;;20.67;42.91;102149.03;16123400;19;129395;-51
2022/10/10 19:19:58;;;;;;;14.27;2.25;;;;;;;20.64;43.13;102149.50;16124501;19;129137;-50
2022/10/10 19:25:19;;;;;;;30.13;2.25;;;;;;;20.63;43.04;102153.34;16119240;19;130028;-48
2022/10/10 19:30:43;;;;;;;16.08;1.92;;;;;;;20.61;43.12;102155.53;16106762;19;130018;-53
2022/10/10 19:36:08;;;;;;;8.98;1.70;;;;;;;20.60;43.18;102170.53;16104318;19;130023;-51
2022/10/10 19:41:30;;;;;;;17.10;2.10;;;;;;;20.59;43.06;102174.38;16107209;19;130178;-50
2022/10/10 19:46:53;;;;;;;20.25;2.45;;;;;;;20.58;43.31;102187.41;16122420;19;130065;-51
2022/10/10 19:52:15;;;;;;;10.98;1.92;;;;;;;20.54;43.40;102197.31;16131491;19;129424;-49
2022/10/10 19:57:36;;;;;;;29.15;2.70;;;;;;;20.53;43.35;102201.16;16135675;19;130962;-56
2022/10/10 20:02:58;;;;;;;17.98;2.33;;;;;;;20.55;43.53;102212.91;16135218;19;129841;-52
2022/10/10 20:08:20;;;;;;;18.77;2.25;;;;;;;20.54;43.76;102227.91;16130494;19;130051;-47
2022/10/10 20:13:41;;;;;;;28.65;2.80;;;;;;;20.52;43.58;102237.50;16134199;19;129697;-48
2022/10/10 20:19:03;;;;;;;19.83;2.25;;;;;;;20.47;43.67;102249.31;16136257;19;129803;-50
2022/10/10 20:24:25;;;;;;;30.00;2.83;;;;;;;20.46;44.10;102261.50;16123782;19;129782;-52
2022/10/10 20:29:47;;;;;;;19.38;2.90;;;;;;;20.36;44.34;102259.25;16127229;19;131072;-48
2022/10/10 20:35:08;;;;;;;26.58;2.70;;;;;;;20.34;43.91;102268.88;16128903;19;129484;-51
2022/10/10 20:40:30;;;;;;;27.95;2.90;;;;;;;20.29;44.19;102272.34;16131349;19;130390;-50
2022/10/10 20:45:52;;;;;;;18.70;2.90;;;;;;;20.23;44.14;102282.44;16133480;19;130104;-49
2022/10/10 20:51:14;;;;;;;27.60;2.90;;;;;;;20.16;44.40;102289.09;16130908;19;129849;-45
2022/10/10 20:56:35;;;;;;;18.42;3.03;;;;;;;20.06;44.59;102298.78;16129092;19;129324;-46
2022/10/10 21:01:57;;;;;;;24.48;2.50;;;;;;;19.99;44.58;102298.81;16128799;19;129991;-47
2022/10/10 21:07:19;;;;;;;38.40;3.30;;;;;;;19.92;44.24;102295.22;16119105;19;129923;-51
2022/10/10 21:12:41;;;;;;;18.52;3.13;;;;;;;19.85;44.45;102302.69;16125630;19;129428;-55
2022/10/10 21:18:02;;;;;;;12.13;2.05;;;;;;;19.79;44.44;102309.16;16122303;19;130617;-47
2022/10/10 21:23:24;;;;;;;10.90;2.10;;;;;;;19.73;44.39;102318.34;16124995;19;129623;-46
2022/10/10 21:28:48;;;;;;;13.25;2.47;;;;;;;19.67;44.65;102320.09;16128764;19;129420;-46
2022/10/10 21:34:12;;;;;;;18.88;2.40;;;;;;;19.63;44.54;102333.56;16125690;19;129214;-47
2022/10/10 21:39:34;;;;;;;11.88;2.70;;;;;;;19.58;44.26;102333.34;16128627;19;130026;-46
2022/10/10 21:44:56;;;;;;;12.45;2.55;;;;;;;19.55;44.67;102347.69;16129065;19;130523;-47
2022/10/10 21:50:17;;;;;;;11.93;1.90;;;;;;;19.52;44.25;102342.56;16128228;19;130148;-48
2022/10/10 21:55:39;;;;;;;13.77;2.00;;;;;;;19.48;44.72;102347.69;16128354;19;130275;-50
2022/10/10 22:01:07;;;;;;;13.23;1.73;;;;;;;19.46;44.42;102346.19;16127279;19;129590;-46
2022/10/10 22:06:30;;;;;;;14.00;1.73;;;;;;;19.43;44.40;102346.66;16125222;19;131050;-46
2022/10/10 22:11:51;;;;;;;10.05;1.85;;;;;;;19.40;44.57;102352.63;16124176;19;129203;-50
2022/10/10 22:17:13;;;;;;;10.80;2.25;;;;;;;19.37;44.21;102354.75;16124358;19;129998;-50
2022/10/10 22:22:41;;;;;;;10.13;1.80;;;;;;;19.36;44.61;102355.81;16121575;19;129628;-52
2022/10/10 22:28:03;;;;;;;11.65;1.85;;;;;;;19.34;44.12;102357.97;16124373;19;129913;-45
2022/10/10 22:33:26;;;;;;;10.68;1.80;;;;;;;19.33;44.13;102377.63;16121006;19;129278;-49
2022/10/10 22:38:48;;;;;;;13.68;1.80;;;;;;;19.32;44.28;102376.75;16123528;19;129535;-49
2022/10/10 22:44:10;;;;;;;11.98;2.40;;;;;;;19.30;44.58;102373.34;16121741;19;130224;-52
2022/10/10 22:49:33;;;;;;;11.07;1.95;;;;;;;19.29;44.01;102377.19;16122717;19;130551;-47
2022/10/10 22:54:55;;;;;;;13.13;1.40;;;;;;;19.28;43.93;102375.50;16123829;19;130050;-47
2022/10/10 23:00:17;;;;;;;10.90;1.83;;;;;;;19.26;43.95;102372.06;16122498;19;130872;-48
2022/10/10 23:05:40;;;;;;;5.88;1.90;;;;;;;19.22;44.00;102373.56;16123091;19;130875;-52
2022/10/10 23:11:02;;;;;;;9.00;1.65;;;;;;;19.19;43.99;102376.75;16122432;19;130333;-47
2022/10/10 23:16:24;;;;;;;7.00;1.60;;;;;;;19.17;44.16;102376.13;16124292;19;129265;-49
2022/10/10 23:21:46;;;;;;;6.13;1.58;;;;;;;19.16;44.31;102377.19;16117222;19;130214;-48
2022/10/10 23:27:07;;;;;;;5.65;1.50;;;;;;;19.14;43.87;102388.47;16121939;19;130388;-48
2022/10/10 23:32:29;;;;;;;6.68;1.80;;;;;;;19.15;43.92;102386.56;16121195;19;129471;-46
2022/10/10 23:37:51;;;;;;;8.70;1.42;;;;;;;19.12;43.90;102387.84;16119457;19;129359;-47
2022/10/10 23:43:12;;;;;;;6.97;1.58;;;;;;;19.13;44.07;102383.16;16121223;19;129326;-48
2022/10/10 23:48:34;;;;;;;6.28;1.45;;;;;;;19.11;43.79;102385.28;16121631;19;129709;-50
2022/10/10 23:53:56;;;;;;;5.60;1.40;;;;;;;19.06;44.02;102384.03;16119150;19;129115;-46
2022/10/10 23:59:17;;;;;;;6.15;1.40;;;;;;;19.05;44.24;102387.84;16116656;19;131267;-46
